sensor_id;sensor_type;location;lat;lon;timestamp;P1;durP1;ratioP1;P2;durP2;ratioP2
77111;SDS011;66064;50.226;14.344;2023-07-22T00:02:23;7.88;;;7.13;;
77111;SDS011;66064;50.226;14.344;2023-07-22T00:04:49;8.55;;;7.85;;
77111;SDS011;66064;50.226;14.344;2023-07-22T00:07:16;10.60;;;9.70;;
77111;SDS011;66064;50.226;14.344;2023-07-22T00:09:42;7.88;;;7.28;;
77111;SDS011;66064;50.226;14.344;2023-07-22T00:12:08;8.40;;;7.70;;
77111;SDS011;66064;50.226;14.344;2023-07-22T00:14:38;7.97;;;7.22;;
77111;SDS011;66064;50.226;14.344;2023-07-22T00:17:05;8.57;;;7.80;;
77111;SDS011;66064;50.226;14.344;2023-07-22T00:19:31;8.18;;;7.47;;
77111;SDS011;66064;50.226;14.344;2023-07-22T00:21:57;9.23;;;8.10;;
77111;SDS011;66064;50.226;14.344;2023-07-22T00:24:23;9.75;;;8.75;;
77111;SDS011;66064;50.226;14.344;2023-07-22T00:26:49;8.20;;;7.47;;
77111;SDS011;66064;50.226;14.344;2023-07-22T00:29:15;8.35;;;7.60;;
77111;SDS011;66064;50.226;14.344;2023-07-22T00:31:42;10.18;;;9.35;;
77111;SDS011;66064;50.226;14.344;2023-07-22T00:34:09;9.25;;;7.63;;
77111;SDS011;66064;50.226;14.344;2023-07-22T00:36:35;9.18;;;8.32;;
77111;SDS011;66064;50.226;14.344;2023-07-22T00:39:01;10.52;;;7.90;;
77111;SDS011;66064;50.226;14.344;2023-07-22T00:41:27;8.20;;;7.50;;
77111;SDS011;66064;50.226;14.344;2023-07-22T00:43:54;9.07;;;8.13;;
77111;SDS011;66064;50.226;14.344;2023-07-22T00:46:20;9.05;;;8.35;;
77111;SDS011;66064;50.226;14.344;2023-07-22T00:48:46;11.52;;;9.70;;
77111;SDS011;66064;50.226;14.344;2023-07-22T00:51:13;8.32;;;6.28;;
77111;SDS011;66064;50.226;14.344;2023-07-22T00:53:39;7.13;;;5.97;;
77111;SDS011;66064;50.226;14.344;2023-07-22T00:56:06;8.60;;;7.80;;
77111;SDS011;66064;50.226;14.344;2023-07-22T00:58:32;8.10;;;7.40;;
77111;SDS011;66064;50.226;14.344;2023-07-22T01:00:59;10.68;;;8.52;;
77111;SDS011;66064;50.226;14.344;2023-07-22T01:03:25;6.20;;;5.63;;
77111;SDS011;66064;50.226;14.344;2023-07-22T01:05:51;9.27;;;8.38;;
77111;SDS011;66064;50.226;14.344;2023-07-22T01:08:20;8.93;;;8.20;;
77111;SDS011;66064;50.226;14.344;2023-07-22T01:10:46;9.68;;;8.57;;
77111;SDS011;66064;50.226;14.344;2023-07-22T01:13:13;8.82;;;8.00;;
77111;SDS011;66064;50.226;14.344;2023-07-22T01:15:39;10.40;;;9.27;;
77111;SDS011;66064;50.226;14.344;2023-07-22T01:18:06;9.95;;;8.95;;
77111;SDS011;66064;50.226;14.344;2023-07-22T01:20:33;8.95;;;8.23;;
77111;SDS011;66064;50.226;14.344;2023-07-22T01:23:00;8.85;;;8.07;;
77111;SDS011;66064;50.226;14.344;2023-07-22T01:25:27;8.88;;;7.85;;
77111;SDS011;66064;50.226;14.344;2023-07-22T01:27:53;10.05;;;9.05;;
77111;SDS011;66064;50.226;14.344;2023-07-22T01:30:20;9.55;;;8.73;;
77111;SDS011;66064;50.226;14.344;2023-07-22T01:32:48;8.57;;;6.40;;
77111;SDS011;66064;50.226;14.344;2023-07-22T01:35:16;9.15;;;7.53;;
77111;SDS011;66064;50.226;14.344;2023-07-22T01:37:42;11.00;;;8.18;;
77111;SDS011;66064;50.226;14.344;2023-07-22T01:40:08;10.00;;;9.20;;
77111;SDS011;66064;50.226;14.344;2023-07-22T01:42:38;8.75;;;8.05;;
77111;SDS011;66064;50.226;14.344;2023-07-22T01:45:07;7.35;;;6.65;;
77111;SDS011;66064;50.226;14.344;2023-07-22T01:47:34;9.60;;;8.75;;
77111;SDS011;66064;50.226;14.344;2023-07-22T01:50:02;9.52;;;8.35;;
77111;SDS011;66064;50.226;14.344;2023-07-22T01:52:28;11.55;;;9.10;;
77111;SDS011;66064;50.226;14.344;2023-07-22T01:54:55;12.13;;;10.35;;
77111;SDS011;66064;50.226;14.344;2023-07-22T01:57:22;10.23;;;9.35;;
77111;SDS011;66064;50.226;14.344;2023-07-22T01:59:48;9.55;;;8.57;;
77111;SDS011;66064;50.226;14.344;2023-07-22T02:02:14;9.70;;;8.70;;
77111;SDS011;66064;50.226;14.344;2023-07-22T02:04:40;9.80;;;9.00;;
77111;SDS011;66064;50.226;14.344;2023-07-22T02:07:06;9.43;;;8.55;;
77111;SDS011;66064;50.226;14.344;2023-07-22T02:09:32;8.95;;;7.97;;
77111;SDS011;66064;50.226;14.344;2023-07-22T02:12:01;11.40;;;9.35;;
77111;SDS011;66064;50.226;14.344;2023-07-22T02:14:28;12.32;;;8.52;;
77111;SDS011;66064;50.226;14.344;2023-07-22T02:16:53;11.90;;;11.00;;
77111;SDS011;66064;50.226;14.344;2023-07-22T02:19:19;10.10;;;9.30;;
77111;SDS011;66064;50.226;14.344;2023-07-22T02:21:45;10.57;;;9.43;;
77111;SDS011;66064;50.226;14.344;2023-07-22T02:24:14;10.02;;;9.15;;
77111;SDS011;66064;50.226;14.344;2023-07-22T02:26:40;8.27;;;6.55;;
77111;SDS011;66064;50.226;14.344;2023-07-22T02:29:06;8.98;;;8.23;;
77111;SDS011;66064;50.226;14.344;2023-07-22T02:31:33;9.45;;;8.52;;
77111;SDS011;66064;50.226;14.344;2023-07-22T02:33:59;10.95;;;9.48;;
77111;SDS011;66064;50.226;14.344;2023-07-22T02:36:25;10.20;;;8.70;;
77111;SDS011;66064;50.226;14.344;2023-07-22T02:38:51;10.10;;;9.10;;
77111;SDS011;66064;50.226;14.344;2023-07-22T02:41:17;10.50;;;9.63;;
77111;SDS011;66064;50.226;14.344;2023-07-22T02:43:44;10.18;;;6.93;;
77111;SDS011;66064;50.226;14.344;2023-07-22T02:46:09;10.95;;;9.93;;
77111;SDS011;66064;50.226;14.344;2023-07-22T02:48:36;12.10;;;10.68;;
77111;SDS011;66064;50.226;14.344;2023-07-22T02:51:03;9.85;;;8.75;;
77111;SDS011;66064;50.226;14.344;2023-07-22T02:53:31;10.27;;;9.55;;
77111;SDS011;66064;50.226;14.344;2023-07-22T02:55:58;10.10;;;9.23;;
77111;SDS011;66064;50.226;14.344;2023-07-22T02:58:25;9.82;;;7.82;;
77111;SDS011;66064;50.226;14.344;2023-07-22T03:00:51;8.70;;;7.90;;
77111;SDS011;66064;50.226;14.344;2023-07-22T03:03:17;10.32;;;9.52;;
77111;SDS011;66064;50.226;14.344;2023-07-22T03:05:44;11.63;;;9.02;;
77111;SDS011;66064;50.226;14.344;2023-07-22T03:08:11;9.07;;;8.38;;
77111;SDS011;66064;50.226;14.344;2023-07-22T03:10:37;9.07;;;8.25;;
77111;SDS011;66064;50.226;14.344;2023-07-22T03:13:03;9.13;;;8.23;;
77111;SDS011;66064;50.226;14.344;2023-07-22T03:15:29;9.02;;;8.23;;
77111;SDS011;66064;50.226;14.344;2023-07-22T03:17:56;9.50;;;8.70;;
77111;SDS011;66064;50.226;14.344;2023-07-22T03:20:27;9.60;;;8.73;;
77111;SDS011;66064;50.226;14.344;2023-07-22T03:22:53;9.40;;;8.73;;
77111;SDS011;66064;50.226;14.344;2023-07-22T03:25:20;9.32;;;8.43;;
77111;SDS011;66064;50.226;14.344;2023-07-22T03:27:46;9.52;;;7.95;;
77111;SDS011;66064;50.226;14.344;2023-07-22T03:30:13;10.05;;;9.13;;
77111;SDS011;66064;50.226;14.344;2023-07-22T03:32:45;9.07;;;8.27;;
77111;SDS011;66064;50.226;14.344;2023-07-22T03:35:13;9.93;;;9.07;;
77111;SDS011;66064;50.226;14.344;2023-07-22T03:37:40;8.68;;;8.07;;
77111;SDS011;66064;50.226;14.344;2023-07-22T03:40:06;10.80;;;10.00;;
77111;SDS011;66064;50.226;14.344;2023-07-22T03:42:46;9.82;;;9.02;;
77111;SDS011;66064;50.226;14.344;2023-07-22T03:45:13;10.18;;;9.38;;
77111;SDS011;66064;50.226;14.344;2023-07-22T03:47:39;8.32;;;7.55;;
77111;SDS011;66064;50.226;14.344;2023-07-22T03:50:06;9.90;;;8.95;;
77111;SDS011;66064;50.226;14.344;2023-07-22T03:52:33;8.98;;;8.15;;
77111;SDS011;66064;50.226;14.344;2023-07-22T03:54:59;10.10;;;9.27;;
77111;SDS011;66064;50.226;14.344;2023-07-22T03:57:28;8.98;;;8.07;;
77111;SDS011;66064;50.226;14.344;2023-07-22T03:59:54;8.23;;;7.35;;
77111;SDS011;66064;50.226;14.344;2023-07-22T04:02:21;8.60;;;7.80;;
77111;SDS011;66064;50.226;14.344;2023-07-22T04:04:48;10.02;;;8.40;;
77111;SDS011;66064;50.226;14.344;2023-07-22T04:07:14;9.30;;;8.45;;
77111;SDS011;66064;50.226;14.344;2023-07-22T04:09:40;8.55;;;7.68;;
77111;SDS011;66064;50.226;14.344;2023-07-22T04:12:07;8.20;;;7.35;;
77111;SDS011;66064;50.226;14.344;2023-07-22T04:14:33;7.95;;;7.25;;
77111;SDS011;66064;50.226;14.344;2023-07-22T04:16:59;8.40;;;7.05;;
77111;SDS011;66064;50.226;14.344;2023-07-22T04:19:25;8.13;;;7.32;;
77111;SDS011;66064;50.226;14.344;2023-07-22T04:21:51;8.07;;;7.25;;
77111;SDS011;66064;50.226;14.344;2023-07-22T04:24:17;7.60;;;7.03;;
77111;SDS011;66064;50.226;14.344;2023-07-22T04:26:44;8.63;;;7.28;;
77111;SDS011;66064;50.226;14.344;2023-07-22T04:29:10;7.78;;;7.18;;
77111;SDS011;66064;50.226;14.344;2023-07-22T04:31:38;7.40;;;6.65;;
77111;SDS011;66064;50.226;14.344;2023-07-22T04:34:04;7.72;;;7.13;;
77111;SDS011;66064;50.226;14.344;2023-07-22T04:36:31;7.72;;;7.03;;
77111;SDS011;66064;50.226;14.344;2023-07-22T04:38:57;7.40;;;6.63;;
77111;SDS011;66064;50.226;14.344;2023-07-22T04:41:23;8.65;;;7.95;;
77111;SDS011;66064;50.226;14.344;2023-07-22T04:43:49;7.28;;;6.57;;
77111;SDS011;66064;50.226;14.344;2023-07-22T04:46:16;9.82;;;8.15;;
77111;SDS011;66064;50.226;14.344;2023-07-22T04:48:43;9.05;;;8.25;;
77111;SDS011;66064;50.226;14.344;2023-07-22T04:51:09;7.95;;;7.25;;
77111;SDS011;66064;50.226;14.344;2023-07-22T04:53:35;8.80;;;8.13;;
77111;SDS011;66064;50.226;14.344;2023-07-22T04:56:01;7.97;;;7.38;;
77111;SDS011;66064;50.226;14.344;2023-07-22T04:58:28;9.13;;;7.82;;
77111;SDS011;66064;50.226;14.344;2023-07-22T05:00:54;6.97;;;6.32;;
77111;SDS011;66064;50.226;14.344;2023-07-22T05:03:20;9.82;;;7.28;;
77111;SDS011;66064;50.226;14.344;2023-07-22T05:05:46;7.72;;;6.97;;
77111;SDS011;66064;50.226;14.344;2023-07-22T05:08:12;7.57;;;6.90;;
77111;SDS011;66064;50.226;14.344;2023-07-22T05:10:38;8.57;;;7.78;;
77111;SDS011;66064;50.226;14.344;2023-07-22T05:13:05;8.82;;;7.88;;
77111;SDS011;66064;50.226;14.344;2023-07-22T05:15:31;6.78;;;6.18;;
77111;SDS011;66064;50.226;14.344;2023-07-22T05:17:57;7.07;;;6.20;;
77111;SDS011;66064;50.226;14.344;2023-07-22T05:20:23;10.07;;;7.65;;
77111;SDS011;66064;50.226;14.344;2023-07-22T05:22:49;8.93;;;6.82;;
77111;SDS011;66064;50.226;14.344;2023-07-22T05:25:15;8.10;;;7.30;;
77111;SDS011;66064;50.226;14.344;2023-07-22T05:27:41;7.60;;;6.90;;
77111;SDS011;66064;50.226;14.344;2023-07-22T05:30:07;7.72;;;6.93;;
77111;SDS011;66064;50.226;14.344;2023-07-22T05:32:33;9.85;;;8.20;;
77111;SDS011;66064;50.226;14.344;2023-07-22T05:34:59;8.18;;;7.47;;
77111;SDS011;66064;50.226;14.344;2023-07-22T05:37:26;8.60;;;7.03;;
77111;SDS011;66064;50.226;14.344;2023-07-22T05:39:52;7.50;;;6.72;;
77111;SDS011;66064;50.226;14.344;2023-07-22T05:42:18;8.23;;;7.47;;
77111;SDS011;66064;50.226;14.344;2023-07-22T05:44:44;7.47;;;6.85;;
77111;SDS011;66064;50.226;14.344;2023-07-22T05:47:11;8.82;;;7.50;;
77111;SDS011;66064;50.226;14.344;2023-07-22T05:49:37;8.48;;;7.00;;
77111;SDS011;66064;50.226;14.344;2023-07-22T05:52:03;7.38;;;5.85;;
77111;SDS011;66064;50.226;14.344;2023-07-22T05:54:30;7.20;;;6.53;;
77111;SDS011;66064;50.226;14.344;2023-07-22T05:56:56;7.50;;;6.90;;
77111;SDS011;66064;50.226;14.344;2023-07-22T05:59:22;9.38;;;6.65;;
77111;SDS011;66064;50.226;14.344;2023-07-22T06:01:48;6.95;;;6.03;;
77111;SDS011;66064;50.226;14.344;2023-07-22T06:04:14;6.95;;;6.35;;
77111;SDS011;66064;50.226;14.344;2023-07-22T06:06:40;6.65;;;5.95;;
77111;SDS011;66064;50.226;14.344;2023-07-22T06:09:06;5.90;;;5.45;;
77111;SDS011;66064;50.226;14.344;2023-07-22T06:11:32;7.78;;;4.43;;
77111;SDS011;66064;50.226;14.344;2023-07-22T06:13:58;5.55;;;5.03;;
77111;SDS011;66064;50.226;14.344;2023-07-22T06:16:23;6.75;;;4.88;;
77111;SDS011;66064;50.226;14.344;2023-07-22T06:18:50;4.47;;;4.07;;
77111;SDS011;66064;50.226;14.344;2023-07-22T06:21:15;4.85;;;3.85;;
77111;SDS011;66064;50.226;14.344;2023-07-22T06:23:41;6.10;;;4.10;;
77111;SDS011;66064;50.226;14.344;2023-07-22T06:26:07;7.65;;;3.85;;
77111;SDS011;66064;50.226;14.344;2023-07-22T06:28:33;5.05;;;4.03;;
77111;SDS011;66064;50.226;14.344;2023-07-22T06:30:59;7.07;;;4.20;;
77111;SDS011;66064;50.226;14.344;2023-07-22T06:33:26;4.18;;;3.47;;
77111;SDS011;66064;50.226;14.344;2023-07-22T06:35:51;4.53;;;3.53;;
77111;SDS011;66064;50.226;14.344;2023-07-22T06:38:18;5.45;;;3.92;;
77111;SDS011;66064;50.226;14.344;2023-07-22T06:40:43;4.45;;;3.83;;
77111;SDS011;66064;50.226;14.344;2023-07-22T06:43:09;6.38;;;3.63;;
77111;SDS011;66064;50.226;14.344;2023-07-22T06:45:36;4.43;;;3.38;;
77111;SDS011;66064;50.226;14.344;2023-07-22T06:48:02;4.57;;;3.17;;
77111;SDS011;66064;50.226;14.344;2023-07-22T06:50:28;4.35;;;3.42;;
77111;SDS011;66064;50.226;14.344;2023-07-22T06:52:54;4.95;;;3.17;;
77111;SDS011;66064;50.226;14.344;2023-07-22T06:55:20;5.03;;;3.30;;
77111;SDS011;66064;50.226;14.344;2023-07-22T06:57:48;3.92;;;3.17;;
77111;SDS011;66064;50.226;14.344;2023-07-22T07:00:14;4.65;;;3.00;;
77111;SDS011;66064;50.226;14.344;2023-07-22T07:02:41;4.05;;;3.20;;
77111;SDS011;66064;50.226;14.344;2023-07-22T07:05:07;4.10;;;2.65;;
77111;SDS011;66064;50.226;14.344;2023-07-22T07:07:33;4.22;;;3.15;;
77111;SDS011;66064;50.226;14.344;2023-07-22T07:09:58;3.63;;;2.83;;
77111;SDS011;66064;50.226;14.344;2023-07-22T07:12:25;4.60;;;3.13;;
77111;SDS011;66064;50.226;14.344;2023-07-22T07:14:51;3.80;;;2.97;;
77111;SDS011;66064;50.226;14.344;2023-07-22T07:17:17;3.50;;;2.65;;
77111;SDS011;66064;50.226;14.344;2023-07-22T07:19:43;4.30;;;2.75;;
77111;SDS011;66064;50.226;14.344;2023-07-22T07:22:09;4.68;;;3.17;;
77111;SDS011;66064;50.226;14.344;2023-07-22T07:24:35;4.93;;;3.28;;
77111;SDS011;66064;50.226;14.344;2023-07-22T07:27:02;4.43;;;3.20;;
77111;SDS011;66064;50.226;14.344;2023-07-22T07:29:28;4.38;;;3.25;;
77111;SDS011;66064;50.226;14.344;2023-07-22T07:31:54;4.53;;;3.70;;
77111;SDS011;66064;50.226;14.344;2023-07-22T07:34:20;4.40;;;3.35;;
77111;SDS011;66064;50.226;14.344;2023-07-22T07:36:46;4.68;;;3.30;;
77111;SDS011;66064;50.226;14.344;2023-07-22T07:39:16;4.28;;;3.42;;
77111;SDS011;66064;50.226;14.344;2023-07-22T07:41:42;5.00;;;3.30;;
77111;SDS011;66064;50.226;14.344;2023-07-22T07:44:09;4.93;;;3.17;;
77111;SDS011;66064;50.226;14.344;2023-07-22T07:46:35;4.75;;;2.92;;
77111;SDS011;66064;50.226;14.344;2023-07-22T07:49:01;4.68;;;3.40;;
77111;SDS011;66064;50.226;14.344;2023-07-22T07:51:29;4.10;;;3.10;;
77111;SDS011;66064;50.226;14.344;2023-07-22T07:53:56;4.35;;;3.22;;
77111;SDS011;66064;50.226;14.344;2023-07-22T07:56:24;4.40;;;3.30;;
77111;SDS011;66064;50.226;14.344;2023-07-22T07:58:51;4.22;;;3.15;;
77111;SDS011;66064;50.226;14.344;2023-07-22T08:01:18;4.03;;;3.10;;
77111;SDS011;66064;50.226;14.344;2023-07-22T08:03:44;4.10;;;3.00;;
77111;SDS011;66064;50.226;14.344;2023-07-22T08:06:12;5.65;;;2.95;;
77111;SDS011;66064;50.226;14.344;2023-07-22T08:08:38;4.45;;;2.97;;
77111;SDS011;66064;50.226;14.344;2023-07-22T08:11:08;3.10;;;2.50;;
77111;SDS011;66064;50.226;14.344;2023-07-22T08:13:36;4.88;;;2.53;;
77111;SDS011;66064;50.226;14.344;2023-07-22T08:16:04;3.97;;;2.63;;
77111;SDS011;66064;50.226;14.344;2023-07-22T08:18:33;4.10;;;2.67;;
77111;SDS011;66064;50.226;14.344;2023-07-22T08:21:01;3.85;;;2.50;;
77111;SDS011;66064;50.226;14.344;2023-07-22T08:23:28;3.78;;;2.40;;
77111;SDS011;66064;50.226;14.344;2023-07-22T08:25:54;4.35;;;2.50;;
77111;SDS011;66064;50.226;14.344;2023-07-22T08:28:20;3.85;;;2.65;;
77111;SDS011;66064;50.226;14.344;2023-07-22T08:30:49;3.50;;;2.55;;
77111;SDS011;66064;50.226;14.344;2023-07-22T08:33:16;5.70;;;2.55;;
77111;SDS011;66064;50.226;14.344;2023-07-22T08:35:42;3.85;;;2.45;;
77111;SDS011;66064;50.226;14.344;2023-07-22T08:38:08;5.30;;;2.58;;
77111;SDS011;66064;50.226;14.344;2023-07-22T08:43:05;4.28;;;2.30;;
77111;SDS011;66064;50.226;14.344;2023-07-22T08:45:33;4.07;;;2.45;;
77111;SDS011;66064;50.226;14.344;2023-07-22T08:48:09;3.30;;;2.10;;
77111;SDS011;66064;50.226;14.344;2023-07-22T08:50:42;3.22;;;2.17;;
77111;SDS011;66064;50.226;14.344;2023-07-22T08:53:28;3.35;;;2.00;;
77111;SDS011;66064;50.226;14.344;2023-07-22T08:56:03;3.15;;;2.15;;
77111;SDS011;66064;50.226;14.344;2023-07-22T08:58:29;2.92;;;2.08;;
77111;SDS011;66064;50.226;14.344;2023-07-22T09:00:56;3.28;;;2.00;;
77111;SDS011;66064;50.226;14.344;2023-07-22T09:03:24;4.22;;;1.90;;
77111;SDS011;66064;50.226;14.344;2023-07-22T09:05:50;3.67;;;1.95;;
77111;SDS011;66064;50.226;14.344;2023-07-22T09:08:17;3.70;;;2.10;;
77111;SDS011;66064;50.226;14.344;2023-07-22T09:10:43;3.55;;;2.00;;
77111;SDS011;66064;50.226;14.344;2023-07-22T09:13:10;2.88;;;2.00;;
77111;SDS011;66064;50.226;14.344;2023-07-22T09:15:37;3.70;;;1.75;;
77111;SDS011;66064;50.226;14.344;2023-07-22T09:18:03;3.25;;;2.00;;
77111;SDS011;66064;50.226;14.344;2023-07-22T09:20:30;3.35;;;1.70;;
77111;SDS011;66064;50.226;14.344;2023-07-22T09:22:56;3.45;;;1.80;;
77111;SDS011;66064;50.226;14.344;2023-07-22T09:25:23;3.03;;;1.90;;
77111;SDS011;66064;50.226;14.344;2023-07-22T09:27:52;3.92;;;1.83;;
77111;SDS011;66064;50.226;14.344;2023-07-22T09:32:57;2.85;;;1.90;;
77111;SDS011;66064;50.226;14.344;2023-07-22T09:35:26;4.13;;;2.13;;
77111;SDS011;66064;50.226;14.344;2023-07-22T09:37:56;3.33;;;2.28;;
77111;SDS011;66064;50.226;14.344;2023-07-22T09:40:25;2.50;;;1.80;;
77111;SDS011;66064;50.226;14.344;2023-07-22T09:42:53;4.05;;;2.00;;
77111;SDS011;66064;50.226;14.344;2023-07-22T09:45:22;3.65;;;2.00;;
77111;SDS011;66064;50.226;14.344;2023-07-22T09:47:50;3.10;;;1.90;;
77111;SDS011;66064;50.226;14.344;2023-07-22T09:50:19;4.18;;;2.20;;
77111;SDS011;66064;50.226;14.344;2023-07-22T09:52:50;2.70;;;1.60;;
77111;SDS011;66064;50.226;14.344;2023-07-22T09:55:21;4.45;;;2.00;;
77111;SDS011;66064;50.226;14.344;2023-07-22T09:57:58;4.07;;;2.00;;
77111;SDS011;66064;50.226;14.344;2023-07-22T10:00:29;2.97;;;2.25;;
77111;SDS011;66064;50.226;14.344;2023-07-22T10:02:57;3.33;;;2.30;;
77111;SDS011;66064;50.226;14.344;2023-07-22T10:05:25;3.50;;;2.05;;
77111;SDS011;66064;50.226;14.344;2023-07-22T10:07:53;2.60;;;1.90;;
77111;SDS011;66064;50.226;14.344;2023-07-22T10:10:30;3.85;;;1.90;;
77111;SDS011;66064;50.226;14.344;2023-07-22T10:15:33;2.47;;;1.80;;
77111;SDS011;66064;50.226;14.344;2023-07-22T10:18:00;2.83;;;1.98;;
77111;SDS011;66064;50.226;14.344;2023-07-22T10:20:28;4.88;;;2.10;;
77111;SDS011;66064;50.226;14.344;2023-07-22T10:22:54;3.58;;;2.00;;
77111;SDS011;66064;50.226;14.344;2023-07-22T10:25:21;4.45;;;2.40;;
77111;SDS011;66064;50.226;14.344;2023-07-22T10:27:49;3.40;;;2.50;;
77111;SDS011;66064;50.226;14.344;2023-07-22T10:30:17;3.03;;;1.90;;
77111;SDS011;66064;50.226;14.344;2023-07-22T10:32:47;3.53;;;2.17;;
77111;SDS011;66064;50.226;14.344;2023-07-22T10:37:56;4.55;;;2.45;;
77111;SDS011;66064;50.226;14.344;2023-07-22T10:40:44;3.58;;;2.33;;
77111;SDS011;66064;50.226;14.344;2023-07-22T10:43:11;3.85;;;2.33;;
77111;SDS011;66064;50.226;14.344;2023-07-22T10:45:41;4.25;;;2.60;;
77111;SDS011;66064;50.226;14.344;2023-07-22T10:48:11;3.38;;;2.67;;
77111;SDS011;66064;50.226;14.344;2023-07-22T10:50:49;3.78;;;2.35;;
77111;SDS011;66064;50.226;14.344;2023-07-22T10:56:12;5.13;;;2.40;;
77111;SDS011;66064;50.226;14.344;2023-07-22T11:04:09;4.55;;;3.45;;
77111;SDS011;66064;50.226;14.344;2023-07-22T11:06:59;3.30;;;2.53;;
77111;SDS011;66064;50.226;14.344;2023-07-22T11:14:48;3.88;;;2.42;;
77111;SDS011;66064;50.226;14.344;2023-07-22T11:17:16;4.05;;;2.88;;
77111;SDS011;66064;50.226;14.344;2023-07-22T11:19:56;6.45;;;2.75;;
77111;SDS011;66064;50.226;14.344;2023-07-22T11:22:23;4.47;;;2.88;;
77111;SDS011;66064;50.226;14.344;2023-07-22T11:24:49;3.45;;;2.40;;
77111;SDS011;66064;50.226;14.344;2023-07-22T11:27:15;3.80;;;2.83;;
77111;SDS011;66064;50.226;14.344;2023-07-22T11:29:41;3.75;;;2.83;;
77111;SDS011;66064;50.226;14.344;2023-07-22T11:32:14;4.28;;;2.75;;
77111;SDS011;66064;50.226;14.344;2023-07-22T11:34:44;4.10;;;2.83;;
77111;SDS011;66064;50.226;14.344;2023-07-22T11:37:11;3.90;;;2.70;;
77111;SDS011;66064;50.226;14.344;2023-07-22T11:39:37;5.72;;;3.47;;
77111;SDS011;66064;50.226;14.344;2023-07-22T11:42:03;4.28;;;2.83;;
77111;SDS011;66064;50.226;14.344;2023-07-22T11:44:29;6.32;;;2.88;;
77111;SDS011;66064;50.226;14.344;2023-07-22T11:51:58;3.60;;;2.30;;
77111;SDS011;66064;50.226;14.344;2023-07-22T11:54:44;6.45;;;2.90;;
77111;SDS011;66064;50.226;14.344;2023-07-22T11:57:12;3.45;;;2.50;;
77111;SDS011;66064;50.226;14.344;2023-07-22T11:59:39;3.50;;;2.40;;
77111;SDS011;66064;50.226;14.344;2023-07-22T12:02:12;3.90;;;2.75;;
77111;SDS011;66064;50.226;14.344;2023-07-22T12:04:39;4.25;;;2.92;;
77111;SDS011;66064;50.226;14.344;2023-07-22T12:07:06;5.18;;;2.85;;
77111;SDS011;66064;50.226;14.344;2023-07-22T12:09:31;4.63;;;2.92;;
77111;SDS011;66064;50.226;14.344;2023-07-22T12:11:58;4.93;;;3.00;;
77111;SDS011;66064;50.226;14.344;2023-07-22T12:14:34;3.80;;;2.85;;
77111;SDS011;66064;50.226;14.344;2023-07-22T12:17:01;4.20;;;3.28;;
77111;SDS011;66064;50.226;14.344;2023-07-22T12:19:28;4.18;;;2.80;;
77111;SDS011;66064;50.226;14.344;2023-07-22T12:21:55;4.95;;;3.03;;
77111;SDS011;66064;50.226;14.344;2023-07-22T12:24:21;4.20;;;2.75;;
77111;SDS011;66064;50.226;14.344;2023-07-22T12:26:47;3.55;;;2.83;;
77111;SDS011;66064;50.226;14.344;2023-07-22T12:29:13;7.43;;;2.90;;
77111;SDS011;66064;50.226;14.344;2023-07-22T12:31:39;4.93;;;3.03;;
77111;SDS011;66064;50.226;14.344;2023-07-22T12:34:05;6.00;;;2.97;;
77111;SDS011;66064;50.226;14.344;2023-07-22T12:36:32;3.95;;;3.03;;
77111;SDS011;66064;50.226;14.344;2023-07-22T12:38:57;4.00;;;2.78;;
77111;SDS011;66064;50.226;14.344;2023-07-22T12:41:23;4.55;;;3.00;;
77111;SDS011;66064;50.226;14.344;2023-07-22T12:43:49;4.90;;;3.40;;
77111;SDS011;66064;50.226;14.344;2023-07-22T12:46:15;4.50;;;3.33;;
77111;SDS011;66064;50.226;14.344;2023-07-22T12:48:41;4.18;;;3.30;;
77111;SDS011;66064;50.226;14.344;2023-07-22T12:51:07;5.65;;;3.13;;
77111;SDS011;66064;50.226;14.344;2023-07-22T12:53:35;3.85;;;2.83;;
77111;SDS011;66064;50.226;14.344;2023-07-22T12:56:01;4.13;;;2.65;;
77111;SDS011;66064;50.226;14.344;2023-07-22T12:58:31;3.80;;;3.03;;
77111;SDS011;66064;50.226;14.344;2023-07-22T13:00:58;3.53;;;3.10;;
77111;SDS011;66064;50.226;14.344;2023-07-22T13:03:24;4.15;;;2.85;;
77111;SDS011;66064;50.226;14.344;2023-07-22T13:05:50;5.18;;;3.05;;
77111;SDS011;66064;50.226;14.344;2023-07-22T13:08:16;3.72;;;2.80;;
77111;SDS011;66064;50.226;14.344;2023-07-22T13:10:42;4.07;;;3.10;;
77111;SDS011;66064;50.226;14.344;2023-07-22T13:13:10;4.53;;;3.10;;
77111;SDS011;66064;50.226;14.344;2023-07-22T13:15:36;5.03;;;3.00;;
77111;SDS011;66064;50.226;14.344;2023-07-22T13:18:02;5.07;;;3.33;;
77111;SDS011;66064;50.226;14.344;2023-07-22T13:20:29;4.03;;;2.90;;
77111;SDS011;66064;50.226;14.344;2023-07-22T13:22:56;5.38;;;3.70;;
77111;SDS011;66064;50.226;14.344;2023-07-22T13:25:22;5.55;;;2.85;;
77111;SDS011;66064;50.226;14.344;2023-07-22T13:27:48;6.00;;;3.08;;
77111;SDS011;66064;50.226;14.344;2023-07-22T13:30:14;6.25;;;3.40;;
77111;SDS011;66064;50.226;14.344;2023-07-22T13:32:40;5.13;;;3.40;;
77111;SDS011;66064;50.226;14.344;2023-07-22T13:35:06;4.40;;;3.22;;
77111;SDS011;66064;50.226;14.344;2023-07-22T13:37:33;5.85;;;3.38;;
77111;SDS011;66064;50.226;14.344;2023-07-22T13:39:59;4.30;;;3.25;;
77111;SDS011;66064;50.226;14.344;2023-07-22T13:42:25;5.13;;;3.50;;
77111;SDS011;66064;50.226;14.344;2023-07-22T13:44:51;4.30;;;2.97;;
77111;SDS011;66064;50.226;14.344;2023-07-22T13:47:17;4.15;;;3.22;;
77111;SDS011;66064;50.226;14.344;2023-07-22T13:49:43;4.47;;;3.25;;
77111;SDS011;66064;50.226;14.344;2023-07-22T13:52:09;3.95;;;2.92;;
77111;SDS011;66064;50.226;14.344;2023-07-22T13:54:35;5.25;;;3.40;;
77111;SDS011;66064;50.226;14.344;2023-07-22T13:57:01;3.95;;;2.70;;
77111;SDS011;66064;50.226;14.344;2023-07-22T13:59:27;5.43;;;2.63;;
77111;SDS011;66064;50.226;14.344;2023-07-22T14:01:53;4.45;;;3.00;;
77111;SDS011;66064;50.226;14.344;2023-07-22T14:04:20;4.32;;;3.13;;
77111;SDS011;66064;50.226;14.344;2023-07-22T14:06:45;3.58;;;2.55;;
77111;SDS011;66064;50.226;14.344;2023-07-22T14:09:11;5.45;;;3.15;;
77111;SDS011;66064;50.226;14.344;2023-07-22T14:11:37;4.75;;;3.20;;
77111;SDS011;66064;50.226;14.344;2023-07-22T14:14:03;4.60;;;3.10;;
77111;SDS011;66064;50.226;14.344;2023-07-22T14:16:29;5.45;;;3.20;;
77111;SDS011;66064;50.226;14.344;2023-07-22T14:18:55;4.43;;;2.95;;
77111;SDS011;66064;50.226;14.344;2023-07-22T14:21:21;4.07;;;3.17;;
77111;SDS011;66064;50.226;14.344;2023-07-22T14:23:47;4.32;;;3.25;;
77111;SDS011;66064;50.226;14.344;2023-07-22T14:26:13;5.38;;;2.80;;
77111;SDS011;66064;50.226;14.344;2023-07-22T14:28:39;5.03;;;3.25;;
77111;SDS011;66064;50.226;14.344;2023-07-22T14:31:05;4.43;;;3.10;;
77111;SDS011;66064;50.226;14.344;2023-07-22T14:33:31;5.32;;;3.03;;
77111;SDS011;66064;50.226;14.344;2023-07-22T14:35:58;3.63;;;2.72;;
77111;SDS011;66064;50.226;14.344;2023-07-22T14:38:24;3.55;;;2.63;;
77111;SDS011;66064;50.226;14.344;2023-07-22T14:40:50;4.28;;;3.40;;
77111;SDS011;66064;50.226;14.344;2023-07-22T14:43:16;6.90;;;3.25;;
77111;SDS011;66064;50.226;14.344;2023-07-22T14:45:42;6.97;;;3.10;;
77111;SDS011;66064;50.226;14.344;2023-07-22T14:48:08;4.78;;;3.30;;
77111;SDS011;66064;50.226;14.344;2023-07-22T14:50:34;5.68;;;3.03;;
77111;SDS011;66064;50.226;14.344;2023-07-22T14:53:00;5.00;;;2.92;;
77111;SDS011;66064;50.226;14.344;2023-07-22T14:55:26;5.40;;;3.67;;
77111;SDS011;66064;50.226;14.344;2023-07-22T14:57:52;6.63;;;3.05;;
77111;SDS011;66064;50.226;14.344;2023-07-22T15:00:18;4.22;;;2.90;;
77111;SDS011;66064;50.226;14.344;2023-07-22T15:02:44;8.40;;;3.15;;